Time;durP1;ratioP1;P1;durP2;ratioP2;P2;SDS_P1;SDS_P2;PMS_P1;PMS_P2;Temp;Humidity;BMP_temperature;BMP_pressure;BME280_temperature;BME280_humidity;BME280_pressure;Samples;Min_cycle;Max_cycle;Signal;HPM_P1;HPM_P2
2022/03/10 00:02:07;;;;;;;;;41.25;34.25;;;;;11.51;49.03;101355.19;4980888;28;46760;-67
2022/03/10 00:04:41;;;;;;;;;34.50;33.00;;;;;11.62;48.64;101386.66;4999991;28;45325;-66
2022/03/10 00:07:07;;;;;;;;;37.25;33.75;;;;;11.65;48.73;101391.84;4984359;28;45339;-66
2022/03/10 00:09:33;;;;;;;;;44.75;33.50;;;;;11.62;48.62;101384.00;4999914;28;45543;-64
2022/03/10 00:11:59;;;;;;;;;39.50;35.50;;;;;11.61;49.03;101384.06;5004595;28;45476;-66
2022/03/10 00:14:25;;;;;;;;;40.25;33.25;;;;;11.53;48.77;101379.09;5002937;28;45523;-66
2022/03/10 00:16:51;;;;;;;;;34.50;31.75;;;;;11.55;48.76;101384.34;5004675;28;45378;-66
2022/03/10 00:19:17;;;;;;;;;42.50;31.50;;;;;11.48;48.52;101378.47;5004230;28;45481;-66
2022/03/10 00:21:43;;;;;;;;;36.00;30.50;;;;;11.45;48.60;101381.25;4993195;28;46418;-66
2022/03/10 00:24:08;;;;;;;;;38.50;34.00;;;;;11.41;48.66;101371.69;4990836;28;45263;-66
2022/03/10 00:26:34;;;;;;;;;39.00;35.25;;;;;11.43;48.77;101376.00;5013429;28;45055;-65
2022/03/10 00:28:59;;;;;;;;;34.50;32.00;;;;;11.41;48.94;101372.53;5006375;28;44806;-66
2022/03/10 00:31:25;;;;;;;;;33.25;31.50;;;;;11.42;49.01;101376.94;5008680;28;46090;-65
2022/03/10 00:33:50;;;;;;;;;34.75;29.25;;;;;11.46;48.92;101391.00;5005467;28;45326;-66
2022/03/10 00:36:16;;;;;;;;;33.50;30.00;;;;;11.39;48.55;101374.44;5000863;28;45301;-64
2022/03/10 00:38:41;;;;;;;;;35.75;31.75;;;;;11.37;48.96;101378.09;5005029;28;45495;-65
2022/03/10 00:41:09;;;;;;;;;35.25;33.00;;;;;11.37;49.06;101386.09;4978244;28;47307;-64
2022/03/10 00:43:34;;;;;;;;;41.50;35.25;;;;;11.39;48.87;101390.41;4988472;28;45438;-66
2022/03/10 00:46:00;;;;;;;;;38.50;36.00;;;;;11.35;49.01;101387.97;4981677;28;45427;-65
2022/03/10 00:48:25;;;;;;;;;42.75;33.50;;;;;11.23;48.68;101363.63;4997510;28;45675;-65
2022/03/10 00:50:51;;;;;;;;;39.75;33.50;;;;;11.36;48.79;101389.69;5000141;28;45510;-65
2022/03/10 00:53:18;;;;;;;;;33.25;28.50;;;;;11.32;48.89;101388.09;5005913;28;45387;-64
2022/03/10 00:55:44;;;;;;;;;35.25;32.25;;;;;11.10;49.09;101357.16;5010509;28;45460;-65
2022/03/10 00:58:09;;;;;;;;;37.50;34.00;;;;;11.26;48.58;101386.59;5006747;28;45226;-66
2022/03/10 01:00:35;;;;;;;;;46.75;35.00;;;;;11.17;49.29;101374.56;5001408;28;46178;-66
2022/03/10 01:03:00;;;;;;;;;42.25;35.75;;;;;11.25;48.53;101384.00;5004242;28;45429;-66
2022/03/10 01:05:26;;;;;;;;;28.25;26.50;;;;;11.22;48.58;101385.88;5003945;28;45543;-66
2022/03/10 01:07:52;;;;;;;;;43.00;35.00;;;;;11.12;48.46;101368.59;4999665;28;45372;-65
2022/03/10 01:10:18;;;;;;;;;34.75;29.00;;;;;11.07;48.99;101365.28;4977634;28;45765;-65
2022/03/10 01:12:45;;;;;;;;;33.50;31.25;;;;;11.05;48.91;101367.13;4987796;28;45435;-65
2022/03/10 01:15:16;;;;;;;;;31.75;28.00;;;;;11.17;48.76;101393.19;4986711;28;45309;-65
2022/03/10 01:17:42;;;;;;;;;43.75;37.00;;;;;11.19;48.08;101387.78;5007912;28;45756;-64
2022/03/10 01:20:08;;;;;;;;;30.75;22.25;;;;;11.12;48.22;101386.34;5008169;28;46126;-66
2022/03/10 01:22:35;;;;;;;;;27.75;24.25;;;;;10.98;48.24;101373.69;5006927;28;45568;-65
2022/03/10 01:25:01;;;;;;;;;34.50;27.00;;;;;11.10;48.07;101381.09;5002742;28;45396;-65
2022/03/10 01:27:26;;;;;;;;;37.75;33.25;;;;;11.08;48.93;101395.44;5006165;28;45662;-65
2022/03/10 01:29:51;;;;;;;;;39.50;31.00;;;;;10.99;48.96;101380.72;5024968;28;45621;-64
2022/03/10 01:32:17;;;;;;;;;33.50;29.25;;;;;11.03;48.32;101384.97;5007290;28;45352;-68
2022/03/10 01:34:42;;;;;;;;;36.50;33.00;;;;;10.91;48.47;101370.41;4996853;28;44702;-65
2022/03/10 01:37:07;;;;;;;;;39.75;34.00;;;;;10.93;48.20;101376.53;5011479;28;45448;-65
2022/03/10 01:39:33;;;;;;;;;33.25;32.00;;;;;10.92;48.10;101379.25;4985637;28;47543;-65
2022/03/10 01:42:00;;;;;;;;;33.00;31.75;;;;;10.93;48.59;101381.84;4999986;28;45312;-65
2022/03/10 01:44:25;;;;;;;;;43.50;36.50;;;;;10.92;48.66;101379.25;5001129;28;45358;-65
2022/03/10 01:46:51;;;;;;;;;40.00;32.25;;;;;10.91;48.69;101382.84;5001837;28;45520;-65
2022/03/10 01:49:16;;;;;;;;;31.75;31.75;;;;;10.85;48.02;101375.16;5009397;28;45487;-64
2022/03/10 01:51:43;;;;;;;;;30.75;27.25;;;;;10.87;48.75;101381.28;5025010;28;45486;-65
2022/03/10 01:54:09;;;;;;;;;35.00;33.00;;;;;10.80;48.21;101372.69;4992051;28;44881;-65
2022/03/10 01:56:35;;;;;;;;;28.25;28.25;;;;;10.77;48.97;101374.63;4991604;28;45502;-65
2022/03/10 01:59:03;;;;;;;;;30.00;26.25;;;;;10.73;48.02;101370.38;5008407;28;46286;-65
2022/03/10 02:01:29;;;;;;;;;31.50;31.25;;;;;10.68;49.01;101369.69;4999668;28;45288;-65
2022/03/10 02:03:58;;;;;;;;;38.25;34.75;;;;;10.60;48.73;101362.94;4985552;28;45195;-65
2022/03/10 02:06:24;;;;;;;;;35.75;34.00;;;;;10.64;48.15;101368.97;5006033;28;45423;-65
2022/03/10 02:11:34;;;;;;;;;39.25;31.25;;;;;10.55;48.68;101370.28;5007643;28;45275;-65
2022/03/10 02:17:19;;;;;;;;;33.25;29.00;;;;;10.47;49.27;101364.41;5013916;28;45449;-66
2022/03/10 02:19:29;;;;;;;;;33.00;31.00;;;;;10.46;49.21;101375.97;4997200;28;45475;-64
2022/03/10 02:21:57;;;;;;;;;35.25;32.00;;;;;10.36;49.19;101357.81;5005917;28;45476;-65
2022/03/10 02:24:22;;;;;;;;;38.25;33.75;;;;;10.41;48.76;101359.34;5007708;28;45171;-65
2022/03/10 02:26:48;;;;;;;;;35.25;30.25;;;;;10.42;49.01;101373.53;5006074;28;45671;-65
2022/03/10 02:29:14;;;;;;;;;41.75;34.50;;;;;10.32;49.66;101370.38;5025799;28;45188;-66
2022/03/10 02:31:40;;;;;;;;;32.25;30.50;;;;;10.36;49.13;101369.31;5013808;28;45740;-65
2022/03/10 02:34:09;;;;;;;;;35.75;34.25;;;;;10.12;49.68;101333.09;5004952;28;45482;-65
2022/03/10 02:36:34;;;;;;;;;34.75;32.00;;;;;10.19;49.28;101355.84;5007241;28;45399;-66
2022/03/10 02:39:00;;;;;;;;;33.75;30.50;;;;;10.29;49.52;101367.88;5000994;28;45414;-65
2022/03/10 02:41:25;;;;;;;;;38.50;32.75;;;;;10.20;49.55;101363.75;5011797;28;45708;-64
2022/03/10 02:43:50;;;;;;;;;36.00;31.50;;;;;10.30;49.40;101386.41;5001002;28;46033;-66
2022/03/10 02:46:16;;;;;;;;;40.00;32.50;;;;;10.29;49.53;101383.81;4984485;28;45682;-66
2022/03/10 02:48:41;;;;;;;;;30.50;25.50;;;;;10.21;48.92;101376.16;4982014;28;47281;-65
2022/03/10 02:51:07;;;;;;;;;32.25;30.00;;;;;10.24;49.35;101378.69;5013104;28;45220;-65
2022/03/10 02:53:32;;;;;;;;;40.25;34.75;;;;;9.99;49.77;101343.38;5007442;28;45459;-65
2022/03/10 02:55:57;;;;;;;;;40.00;37.25;;;;;10.25;49.43;101380.41;4996864;28;45360;-65
2022/03/10 02:58:23;;;;;;;;;37.00;34.50;;;;;10.19;49.61;101380.63;4990477;28;46979;-64
2022/03/10 03:00:49;;;;;;;;;34.00;30.75;;;;;10.14;49.58;101366.66;5007923;28;44814;-66
2022/03/10 03:03:14;;;;;;;;;40.25;31.25;;;;;10.03;49.94;101347.66;5005700;28;45618;-67
2022/03/10 03:05:40;;;;;;;;;37.00;28.00;;;;;10.20;49.02;101384.16;5000931;28;45265;-65
2022/03/10 03:08:06;;;;;;;;;25.75;21.50;;;;;10.15;49.65;101381.66;4998656;28;45664;-65
2022/03/10 03:10:36;;;;;;;;;43.75;33.75;;;;;10.16;50.22;101382.56;4979845;28;45534;-66
2022/03/10 03:13:04;;;;;;;;;36.00;31.00;;;;;10.10;49.72;101375.69;4985080;28;45319;-65
2022/03/10 03:15:29;;;;;;;;;40.00;32.75;;;;;10.02;50.20;101369.81;5000620;28;45317;-65
2022/03/10 03:17:55;;;;;;;;;34.50;29.50;;;;;10.09;49.92;101386.41;5003522;28;45395;-65
2022/03/10 03:20:21;;;;;;;;;32.25;31.50;;;;;10.06;49.87;101387.41;4985363;28;45420;-65
2022/03/10 03:22:46;;;;;;;;;40.00;30.75;;;;;10.03;49.93;101372.44;5005030;28;45261;-66
2022/03/10 03:25:17;;;;;;;;;36.25;31.50;;;;;10.04;49.71;101384.81;5005990;28;45237;-65
2022/03/10 03:27:43;;;;;;;;;32.50;29.25;;;;;10.00;50.09;101388.50;5012681;28;46077;-65
2022/03/10 03:30:09;;;;;;;;;34.25;31.75;;;;;9.94;50.59;101386.09;5017235;28;45325;-65
2022/03/10 03:32:34;;;;;;;;;33.50;29.50;;;;;9.94;50.46;101388.75;5017386;28;44711;-65
2022/03/10 03:35:00;;;;;;;;;30.25;29.00;;;;;9.95;50.17;101395.81;5017531;28;45221;-64
2022/03/10 03:37:25;;;;;;;;;28.75;26.75;;;;;9.94;50.11;101402.03;5014411;28;45487;-64
2022/03/10 03:39:50;;;;;;;;;31.25;28.25;;;;;9.92;49.87;101400.38;5013832;28;45459;-66
2022/03/10 03:42:16;;;;;;;;;33.50;30.25;;;;;9.92;50.99;101389.75;5012311;28;45277;-65
2022/03/10 03:44:41;;;;;;;;;31.75;25.75;;;;;9.82;50.55;101383.94;5005968;28;45328;-66
2022/03/10 03:47:07;;;;;;;;;40.50;31.00;;;;;9.96;51.27;101402.84;5000843;28;45522;-65
2022/03/10 03:49:32;;;;;;;;;29.75;28.75;;;;;9.96;50.17;101401.97;4999369;28;45942;-65
2022/03/10 03:51:58;;;;;;;;;34.00;25.25;;;;;9.87;50.92;101384.59;5006036;28;45576;-64
2022/03/10 03:54:24;;;;;;;;;33.50;26.25;;;;;9.72;50.97;101358.66;5024368;28;45269;-65
2022/03/10 03:56:49;;;;;;;;;33.75;32.50;;;;;9.92;50.60;101401.25;5023532;28;45452;-64
2022/03/10 03:59:15;;;;;;;;;34.00;27.75;;;;;9.96;50.48;101405.50;5005989;28;44799;-65
2022/03/10 04:01:40;;;;;;;;;39.50;37.25;;;;;9.86;50.24;101388.19;4998539;28;45548;-66
2022/03/10 04:04:05;;;;;;;;;33.00;31.00;;;;;9.58;51.06;101350.38;4985315;28;45664;-64
2022/03/10 04:06:31;;;;;;;;;37.50;30.50;;;;;9.92;50.83;101411.88;5000444;28;46434;-63
2022/03/10 04:08:56;;;;;;;;;40.00;27.50;;;;;9.89;50.52;101403.13;5001562;28;45432;-65
2022/03/10 04:11:22;;;;;;;;;40.75;32.25;;;;;9.72;50.45;101383.44;5007935;28;45773;-65
2022/03/10 04:13:47;;;;;;;;;41.75;33.75;;;;;9.85;51.37;101410.38;5031085;28;45589;-65
2022/03/10 04:16:12;;;;;;;;;38.50;30.75;;;;;9.86;50.69;101409.44;5028559;28;45096;-65
2022/03/10 04:18:38;;;;;;;;;38.00;28.50;;;;;9.86;50.89;101411.25;5014442;28;45260;-65
2022/03/10 04:21:03;;;;;;;;;34.00;28.00;;;;;9.84;51.06;101416.63;5010118;28;45337;-64
2022/03/10 04:23:29;;;;;;;;;34.00;31.25;;;;;9.77;51.27;101404.53;5003784;28;44939;-64
2022/03/10 04:25:55;;;;;;;;;35.25;29.00;;;;;9.74;51.42;101402.81;5004124;28;46361;-64
2022/03/10 04:28:22;;;;;;;;;40.25;30.00;;;;;9.68;50.64;101399.56;4988562;28;45289;-65
2022/03/10 04:30:47;;;;;;;;;36.25;33.00;;;;;9.73;51.44;101410.84;5007164;28;45297;-65
2022/03/10 04:33:13;;;;;;;;;25.50;24.25;;;;;9.69;50.80;101407.47;5006028;28;45403;-66
2022/03/10 04:35:38;;;;;;;;;31.00;29.75;;;;;9.69;51.72;101409.25;4985361;28;45471;-64
2022/03/10 04:38:04;;;;;;;;;31.00;28.25;;;;;9.76;50.96;101426.66;5004742;28;45444;-65
2022/03/10 04:40:30;;;;;;;;;37.75;30.75;;;;;9.70;51.18;101422.47;5005951;28;45429;-65
2022/03/10 04:42:55;;;;;;;;;38.75;29.50;;;;;9.58;51.72;101400.84;4993820;28;44809;-64
2022/03/10 04:45:21;;;;;;;;;41.50;31.75;;;;;9.70;51.90;101433.09;4990711;28;46258;-65
2022/03/10 04:47:47;;;;;;;;;36.50;33.00;;;;;9.61;51.39;101417.50;5002847;28;45317;-65
2022/03/10 04:50:14;;;;;;;;;33.50;31.00;;;;;9.66;51.85;101430.63;5017382;28;45198;-64
2022/03/10 04:52:41;;;;;;;;;35.75;31.75;;;;;9.64;51.50;101416.56;5005912;28;45230;-66
2022/03/10 04:55:07;;;;;;;;;40.75;32.00;;;;;9.54;51.26;101404.56;4999766;28;47356;-65
2022/03/10 04:57:33;;;;;;;;;37.50;29.50;;;;;9.56;51.26;101415.97;5001937;28;45445;-65
2022/03/10 04:59:58;;;;;;;;;35.00;29.25;;;;;9.57;52.64;101421.22;4970939;28;45776;-64
2022/03/10 05:02:24;;;;;;;;;35.50;33.50;;;;;9.57;52.56;101421.22;4987755;28;45428;-64
2022/03/10 05:04:49;;;;;;;;;36.00;32.00;;;;;9.36;52.21;101383.06;5003802;28;46083;-65
2022/03/10 05:07:14;;;;;;;;;10.00;6.50;;;;;9.54;51.97;101423.13;5002092;28;45828;-65
2022/03/10 05:09:40;;;;;;;;;40.00;31.00;;;;;9.54;51.98;101420.47;4986191;28;45467;-65
2022/03/10 05:12:06;;;;;;;;;36.50;33.00;;;;;9.45;52.90;101408.41;5018156;28;45390;-65
2022/03/10 05:14:31;;;;;;;;;37.50;29.75;;;;;9.50;52.32;101418.84;5023357;28;45891;-64
2022/03/10 05:16:57;;;;;;;;;38.25;31.00;;;;;9.48;52.14;101418.03;4989087;28;45344;-64
2022/03/10 05:19:23;;;;;;;;;36.25;28.75;;;;;9.43;52.70;101408.47;4986689;28;45357;-66
2022/03/10 05:21:49;;;;;;;;;37.25;29.75;;;;;9.41;52.63;101414.78;5005531;28;45640;-65
2022/03/10 05:24:15;;;;;;;;;39.00;31.75;;;;;9.38;53.18;101413.13;5005559;28;45183;-65
2022/03/10 05:26:41;;;;;;;;;39.00;32.25;;;;;9.27;52.80;101388.75;5013679;28;45546;-65
2022/03/10 05:29:06;;;;;;;;;38.25;32.25;;;;;9.32;52.95;101404.50;5006687;28;45340;-64
2022/03/10 05:31:32;;;;;;;;;35.75;28.25;;;;;9.27;52.76;101395.84;5005578;28;45318;-65
2022/03/10 05:33:57;;;;;;;;;35.75;32.25;;;;;9.29;52.91;101399.31;5006301;28;45340;-65
2022/03/10 05:36:23;;;;;;;;;33.75;28.75;;;;;9.36;52.95;101414.94;5001591;28;45392;-64
2022/03/10 05:38:48;;;;;;;;;38.50;29.50;;;;;9.35;52.90;101410.53;4987764;28;46092;-64
2022/03/10 05:41:14;;;;;;;;;30.25;29.00;;;;;9.34;53.81;101414.13;5004989;28;45329;-66
2022/03/10 05:43:39;;;;;;;;;35.50;31.50;;;;;9.33;53.27;101425.66;5012491;28;45200;-65
2022/03/10 05:46:05;;;;;;;;;41.25;29.50;;;;;9.28;53.07;101417.03;5012459;28;45826;-64
2022/03/10 05:48:30;;;;;;;;;31.50;25.50;;;;;9.25;53.90;101419.81;5006462;28;45759;-65
2022/03/10 05:50:56;;;;;;;;;35.50;33.00;;;;;9.24;53.68;101419.84;5004430;28;45570;-64
2022/03/10 05:53:21;;;;;;;;;36.25;25.25;;;;;9.14;53.53;101403.41;5001534;28;45443;-66
2022/03/10 05:55:47;;;;;;;;;45.00;34.25;;;;;9.15;53.41;101418.41;4999118;28;45437;-65
2022/03/10 05:58:12;;;;;;;;;35.50;32.75;;;;;9.16;53.57;101420.13;5001249;28;45202;-65
2022/03/10 06:00:37;;;;;;;;;33.00;29.75;;;;;9.14;53.17;101419.34;5007314;28;46022;-65
2022/03/10 06:03:03;;;;;;;;;31.50;28.50;;;;;9.17;53.56;101424.53;5010116;28;45189;-67
2022/03/10 06:05:29;;;;;;;;;40.25;33.25;;;;;9.18;53.16;101418.28;5008865;28;45248;-65
2022/03/10 06:07:55;;;;;;;;;40.50;32.00;;;;;9.22;53.93;101429.66;5011796;28;45247;-65
2022/03/10 06:10:20;;;;;;;;;19.25;14.00;;;;;9.17;54.28;101424.53;5013182;28;45567;-66
2022/03/10 06:12:46;;;;;;;;;34.75;31.00;;;;;9.23;53.59;101426.06;5006406;28;45444;-65
2022/03/10 06:15:11;;;;;;;;;39.25;30.75;;;;;9.17;53.86;101413.91;4977035;28;45356;-66
2022/03/10 06:17:37;;;;;;;;;40.75;33.50;;;;;9.10;53.92;101425.66;5003454;28;45416;-68
2022/03/10 06:20:03;;;;;;;;;38.25;30.25;;;;;9.12;53.87;101413.22;5007030;28;45522;-66
2022/03/10 06:22:31;;;;;;;;;34.75;32.75;;;;;9.18;54.34;101426.25;5003672;28;45596;-66
2022/03/10 06:24:58;;;;;;;;;33.25;30.50;;;;;9.18;53.87;101428.91;5005840;28;45467;-65
2022/03/10 06:27:24;;;;;;;;;37.75;33.00;;;;;9.12;54.23;101410.56;4982376;28;45429;-65
2022/03/10 06:29:51;;;;;;;;;37.25;30.00;;;;;9.10;53.69;101425.66;4995685;28;45662;-66
2022/03/10 06:32:18;;;;;;;;;38.00;34.75;;;;;9.12;54.08;101434.44;5017656;28;45682;-65
2022/03/10 06:34:47;;;;;;;;;41.25;31.00;;;;;9.19;53.93;101443.91;5005743;28;45431;-68
2022/03/10 06:37:12;;;;;;;;;33.75;33.75;;;;;9.19;53.80;101445.69;4995963;28;45302;-64
2022/03/10 06:39:39;;;;;;;;;35.50;30.75;;;;;9.12;53.85;101429.16;5007438;28;45462;-64
2022/03/10 06:42:05;;;;;;;;;34.75;32.25;;;;;9.16;53.85;101430.75;5003668;28;45483;-64
2022/03/10 06:44:31;;;;;;;;;36.25;29.75;;;;;9.13;54.56;101430.88;5006701;28;45617;-64
2022/03/10 06:46:57;;;;;;;;;31.75;27.25;;;;;9.12;53.96;101434.44;4994121;28;45598;-68
2022/03/10 06:49:22;;;;;;;;;32.25;30.25;;;;;9.11;54.47;101443.31;5011547;28;45531;-63
2022/03/10 06:51:48;;;;;;;;;31.75;22.00;;;;;9.11;54.79;101441.56;5010227;28;45455;-64
2022/03/10 06:54:14;;;;;;;;;35.25;28.00;;;;;9.06;55.03;101437.31;5009024;28;45329;-64
2022/03/10 06:56:40;;;;;;;;;34.50;32.75;;;;;9.16;54.28;101446.69;5006493;28;45418;-59
2022/03/10 06:59:06;;;;;;;;;38.50;33.25;;;;;9.19;54.97;101446.56;5004496;28;45454;-60
2022/03/10 07:01:32;;;;;;;;;35.00;32.00;;;;;9.12;55.55;101445.06;5017524;28;45502;-64
2022/03/10 07:03:59;;;;;;;;;39.50;31.75;;;;;9.03;55.86;101425.03;5002063;28;45588;-62
2022/03/10 07:06:25;;;;;;;;;34.75;30.50;;;;;9.15;55.21;101450.25;5002347;28;46627;-60
2022/03/10 07:08:50;;;;;;;;;41.50;33.75;;;;;9.13;55.69;101447.66;5004160;28;45454;-64
2022/03/10 07:11:16;;;;;;;;;51.50;39.00;;;;;9.03;55.20;101429.47;5004880;28;45777;-63
2022/03/10 07:13:41;;;;;;;;;36.50;34.50;;;;;9.20;55.83;101458.91;5004526;28;45582;-63
2022/03/10 07:16:07;;;;;;;;;35.50;34.00;;;;;9.09;55.58;101451.31;5011000;28;44876;-68
2022/03/10 07:18:34;;;;;;;;;35.50;32.25;;;;;9.05;55.23;101444.41;5001992;28;45682;-68
2022/03/10 07:20:59;;;;;;;;;48.25;37.25;;;;;9.33;55.45;101462.84;4997851;28;45468;-68
2022/03/10 07:23:25;;;;;;;;;33.25;31.25;;;;;9.45;54.57;101456.22;4998495;28;45445;-67
2022/03/10 07:25:50;;;;;;;;;39.50;33.75;;;;;9.48;54.32;101469.34;5006293;28;45254;-66
2022/03/10 07:28:15;;;;;;;;;43.25;34.50;;;;;9.48;54.01;101468.50;5005913;28;45672;-66
2022/03/10 07:30:41;;;;;;;;;39.25;32.25;;;;;9.50;55.58;101471.97;5006325;28;45339;-65
2022/03/10 07:33:06;;;;;;;;;42.25;35.25;;;;;9.44;54.76;101465.09;4998172;28;45749;-66
2022/03/10 07:35:32;;;;;;;;;42.25;36.25;;;;;9.49;54.75;101464.91;5011951;28;45313;-66
2022/03/10 07:37:59;;;;;;;;;37.75;34.50;;;;;9.57;54.99;101468.16;4988732;28;45527;-64
2022/03/10 07:40:25;;;;;;;;;45.25;36.50;;;;;9.49;54.32;101459.59;5008991;28;45241;-66
2022/03/10 07:42:51;;;;;;;;;37.50;35.50;;;;;9.41;54.74;101457.25;5002637;28;45324;-68
2022/03/10 07:45:16;;;;;;;;;39.00;34.75;;;;;9.36;54.85;101456.53;5000700;28;45226;-68
2022/03/10 07:47:42;;;;;;;;;38.25;31.75;;;;;9.39;54.71;101449.34;5001661;28;45663;-66
2022/03/10 07:50:08;;;;;;;;;36.25;28.00;;;;;9.52;55.61;101471.00;5001536;28;45360;-67
2022/03/10 07:52:37;;;;;;;;;37.00;33.75;;;;;9.52;55.21;101449.75;5013557;28;45482;-66
2022/03/10 07:55:03;;;;;;;;;26.00;21.50;;;;;9.58;55.02;101464.56;5002961;28;45253;-67
2022/03/10 07:57:29;;;;;;;;;37.50;36.25;;;;;9.60;55.00;101468.03;5007732;28;45609;-67
2022/03/10 07:59:54;;;;;;;;;29.75;25.25;;;;;9.66;55.26;101459.84;5009858;28;45645;-67
2022/03/10 08:02:21;;;;;;;;;38.75;30.00;;;;;9.70;54.27;101464.97;5008999;28;45394;-67
2022/03/10 08:04:46;;;;;;;;;38.75;36.50;;;;;9.70;55.53;101456.16;5007547;28;45272;-68
2022/03/10 08:07:12;;;;;;;;;35.25;34.75;;;;;9.75;55.61;101464.78;4990341;28;45206;-68
2022/03/10 08:09:37;;;;;;;;;36.25;29.25;;;;;9.80;54.18;101465.50;5004034;28;45443;-68
2022/03/10 08:12:04;;;;;;;;;43.50;34.00;;;;;9.59;54.82;101434.44;5006250;28;45423;-69
2022/03/10 08:14:29;;;;;;;;;33.00;32.00;;;;;9.78;55.04;101455.84;5005105;28;45343;-68
2022/03/10 08:16:55;;;;;;;;;58.50;45.25;;;;;9.79;54.61;101457.59;4974241;28;45688;-67
2022/03/10 08:19:20;;;;;;;;;38.00;33.00;;;;;9.79;54.39;101449.63;4999238;28;45329;-67
2022/03/10 08:21:47;;;;;;;;;36.25;31.00;;;;;9.93;54.84;101466.75;4997328;28;45337;-67
2022/03/10 08:24:13;;;;;;;;;34.75;31.00;;;;;9.96;54.30;101460.44;4995953;28;45432;-67
2022/03/10 08:26:40;;;;;;;;;38.50;35.25;;;;;10.01;54.24;101466.41;4997949;28;45725;-69
2022/03/10 08:29:06;;;;;;;;;32.00;27.75;;;;;10.02;54.66;101465.50;5002417;28;45327;-68
2022/03/10 08:31:31;;;;;;;;;45.75;34.25;;;;;10.06;53.80;101459.16;5002105;28;45320;-70
2022/03/10 08:33:57;;;;;;;;;36.75;33.50;;;;;10.09;53.60;101461.69;5007158;28;45437;-68
2022/03/10 08:36:22;;;;;;;;;41.25;36.50;;;;;10.14;54.52;101465.00;5002206;28;45368;-67
2022/03/10 08:38:48;;;;;;;;;47.00;36.50;;;;;10.01;54.26;101440.72;5007095;28;46161;-71
2022/03/10 08:41:14;;;;;;;;;33.50;29.25;;;;;10.15;53.99;101441.94;4995380;28;45739;-67
2022/03/10 08:43:41;;;;;;;;;49.25;37.25;;;;;10.21;53.60;101450.59;5000156;28;45373;-67
2022/03/10 08:46:07;;;;;;;;;40.00;33.75;;;;;10.04;53.96;101416.69;4984484;28;45420;-67
2022/03/10 08:48:34;;;;;;;;;39.00;32.75;;;;;10.31;54.39;101453.75;5007071;28;46446;-67
2022/03/10 08:51:03;;;;;;;;;41.75;36.25;;;;;10.42;53.40;101462.16;5015478;28;45341;-67
2022/03/10 08:53:30;;;;;;;;;40.75;34.50;;;;;10.41;54.02;101447.09;5010222;28;45499;-68
2022/03/10 08:55:56;;;;;;;;;36.00;35.50;;;;;10.52;53.88;101451.97;5009518;28;45403;-68
2022/03/10 08:58:21;;;;;;;;;35.50;32.25;;;;;10.57;53.18;101442.88;5008335;28;45325;-69
2022/03/10 09:00:47;;;;;;;;;38.75;35.75;;;;;10.81;53.31;101456.06;5009675;28;44803;-68
2022/03/10 09:03:12;;;;;;;;;36.25;32.25;;;;;10.99;52.59;101457.03;5012162;28;45397;-70
2022/03/10 09:05:40;;;;;;;;;37.75;32.75;;;;;10.90;52.46;101405.09;4995150;28;45373;-70
2022/03/10 09:08:05;;;;;;;;;41.00;34.00;;;;;11.38;51.60;101446.41;5007449;28;46485;-71
2022/03/10 09:10:31;;;;;;;;;31.25;27.75;;;;;11.47;51.57;101430.00;5002343;28;45277;-69
2022/03/10 09:12:56;;;;;;;;;39.00;35.25;;;;;11.73;51.12;101450.09;5004779;28;45278;-71
2022/03/10 09:15:23;;;;;;;;;32.75;27.00;;;;;11.88;50.72;101441.41;5004089;28;45583;-71
2022/03/10 09:17:48;;;;;;;;;31.00;29.75;;;;;12.02;50.65;101438.94;5002070;28;45377;-71
2022/03/10 09:20:16;;;;;;;;;38.75;31.00;;;;;12.27;50.44;101443.94;4999510;28;45487;-71
2022/03/10 09:22:42;;;;;;;;;21.00;17.25;;;;;12.43;50.05;101448.50;4983944;28;45510;-70
2022/03/10 09:25:08;;;;;;;;;31.50;30.00;;;;;12.52;48.87;101443.56;5004070;28;45519;-71
2022/03/10 09:27:38;;;;;;;;;31.75;26.50;;;;;12.66;48.99;101434.88;5004923;28;45424;-71
2022/03/10 09:30:08;;;;;;;;;30.50;29.75;;;;;12.89;48.82;101425.66;5012261;28;45566;-70
2022/03/10 09:32:38;;;;;;;;;29.75;28.00;;;;;13.13;48.54;101442.19;5031241;28;44789;-70
2022/03/10 09:35:06;;;;;;;;;25.00;25.00;;;;;13.14;48.39;101418.06;5004423;28;44909;-71
2022/03/10 09:37:32;;;;;;;;;29.25;27.00;;;;;13.35;47.87;101424.09;5008742;28;45504;-72
2022/03/10 09:39:58;;;;;;;;;36.25;30.50;;;;;13.47;47.30;101417.22;5004720;28;45333;-72
2022/03/10 09:42:28;;;;;;;;;33.00;24.25;;;;;13.70;46.75;101434.69;5000653;28;45464;-72
2022/03/10 09:44:58;;;;;;;;;28.50;27.75;;;;;13.75;46.69;101424.56;5001631;28;45452;-69
2022/03/10 09:47:26;;;;;;;;;31.75;26.75;;;;;13.78;45.57;101411.88;5005132;28;45214;-71
2022/03/10 09:49:53;;;;;;;;;30.00;28.00;;;;;13.93;46.58;101434.22;4991688;28;45286;-67
2022/03/10 09:52:19;;;;;;;;;23.75;22.00;;;;;14.03;46.03;101426.53;4996279;28;45393;-67
2022/03/10 09:54:44;;;;;;;;;28.25;28.25;;;;;14.06;45.67;101421.91;5013103;28;45337;-68
2022/03/10 09:57:11;;;;;;;;;30.00;24.75;;;;;14.03;45.27;101411.34;5011818;28;45382;-66
2022/03/10 09:59:50;;;;;;;;;33.50;29.00;;;;;14.02;45.28;101428.34;5012516;28;45216;-66
2022/03/10 10:02:15;;;;;;;;;37.75;33.25;;;;;13.99;45.62;101425.00;5015303;28;45182;-66
2022/03/10 10:04:41;;;;;;;;;37.75;34.50;;;;;13.91;46.55;101428.09;5013787;28;45332;-66
2022/03/10 10:07:10;;;;;;;;;31.75;26.50;;;;;13.90;46.35;101415.69;5010450;28;46315;-67
2022/03/10 10:09:47;;;;;;;;;33.75;30.00;;;;;13.91;46.59;101428.09;5008722;28;45380;-65
2022/03/10 10:12:15;;;;;;;;;28.50;27.25;;;;;13.95;46.47;101424.31;4991648;28;45342;-67
2022/03/10 10:14:45;;;;;;;;;34.00;34.00;;;;;13.87;46.00;101407.84;5009249;28;45536;-66
2022/03/10 10:17:12;;;;;;;;;27.75;24.50;;;;;13.83;46.40;101401.81;5009643;28;46298;-66
2022/03/10 10:19:40;;;;;;;;;34.00;29.25;;;;;13.96;46.58;101423.38;5007965;28;45319;-66
2022/03/10 10:22:16;;;;;;;;;34.75;30.50;;;;;13.99;46.19;101419.66;4989547;28;45282;-64
2022/03/10 10:24:59;;;;;;;;;30.00;25.25;;;;;13.99;46.77;101409.81;5003976;28;44980;-69
2022/03/10 10:27:27;;;;;;;;;33.00;27.75;;;;;14.08;46.22;101413.78;5002564;28;45293;-67
2022/03/10 10:29:55;;;;;;;;;27.50;25.25;;;;;14.06;45.79;101396.94;5005601;28;45384;-66
2022/03/10 10:32:46;;;;;;;;;35.00;29.67;;;;;14.05;46.32;101398.75;5006817;28;45523;-70
2022/03/10 10:35:15;;;;;;;;;34.33;26.33;;;;;14.12;46.34;101400.13;5009079;28;45361;-69
2022/03/10 10:37:48;;;;;;;;;26.00;23.00;;;;;14.16;46.09;101395.47;5006200;28;46332;-69
2022/03/10 10:40:23;;;;;;;;;29.33;26.67;;;;;14.14;46.10;101376.84;5003885;28;45428;-67
2022/03/10 10:42:52;;;;;;;;;31.25;24.50;;;;;14.28;45.89;101383.19;5002997;28;45470;-65
2022/03/10 10:45:31;;;;;;;;;18.75;17.75;;;;;14.40;46.10;101383.31;4983700;28;45429;-66
2022/03/10 10:48:11;;;;;;;;;20.50;19.75;;;;;14.43;45.77;101382.28;4991990;28;46165;-68
2022/03/10 10:50:44;;;;;;;;;22.75;18.50;;;;;14.59;45.43;101375.09;4993531;28;45451;-65
2022/03/10 10:53:29;;;;;;;;;29.75;26.00;;;;;14.62;45.64;101364.22;4993062;28;46488;-67
2022/03/10 10:55:57;;;;;;;;;28.25;24.00;;;;;14.76;45.54;101371.41;5009188;28;45270;-66
2022/03/10 10:58:24;;;;;;;;;23.00;19.67;;;;;14.86;44.97;101366.34;5002275;28;45459;-65
2022/03/10 11:00:50;;;;;;;;;15.00;12.33;;;;;14.81;44.91;101350.53;4992074;28;45704;-66
2022/03/10 11:03:23;;;;;;;;;19.50;19.50;;;;;14.92;45.04;101345.38;4999465;28;45652;-66
2022/03/10 11:05:49;;;;;;;;;30.00;23.67;;;;;15.14;44.66;101355.63;5002542;28;45182;-67
2022/03/10 11:08:18;;;;;;;;;26.67;25.67;;;;;15.24;44.72;101356.78;5000664;28;46519;-71
2022/03/10 11:10:43;;;;;;;;;27.00;25.33;;;;;15.29;44.28;101343.94;5000367;28;45707;-68
2022/03/10 11:13:10;;;;;;;;;18.67;17.33;;;;;15.48;44.58;101357.00;5006530;28;45742;-68
2022/03/10 11:15:37;;;;;;;;;25.00;20.33;;;;;15.50;43.96;101346.22;4987698;28;45269;-67